createdAt,value
2022-11-16T00:02:26.104Z,11.67
2022-11-16T00:05:29.339Z,11.52
2022-11-16T00:08:33.134Z,11.55
2022-11-16T00:11:35.097Z,11.48
2022-11-16T00:14:36.797Z,11.42
2022-11-16T00:17:39.078Z,11.24
2022-11-16T00:20:42.162Z,11.26
2022-11-16T00:23:43.848Z,11.27
2022-11-16T00:26:46.272Z,11.30
2022-11-16T00:29:48.180Z,11.22
2022-11-16T00:32:49.860Z,11.29
2022-11-16T00:35:52.945Z,11.29
2022-11-16T00:38:54.607Z,11.21
2022-11-16T00:41:56.216Z,11.22
2022-11-16T00:44:57.845Z,11.22
2022-11-16T00:48:00.729Z,11.27
2022-11-16T00:51:04.951Z,11.25
2022-11-16T00:54:07.987Z,11.19
2022-11-16T00:57:10.907Z,11.15
2022-11-16T01:00:13.790Z,11.12
2022-11-16T01:03:15.581Z,11.11
2022-11-16T01:06:18.832Z,11.10
2022-11-16T01:09:20.413Z,11.13
2022-11-16T01:12:22.792Z,11.16
2022-11-16T01:15:26.522Z,11.14
2022-11-16T01:18:28.151Z,11.13
2022-11-16T01:21:31.132Z,11.08
2022-11-16T01:24:32.894Z,11.02
2022-11-16T01:27:34.728Z,10.97
2022-11-16T01:30:38.704Z,10.90
2022-11-16T01:33:43.923Z,10.94
2022-11-16T01:36:55.987Z,11.01
2022-11-16T01:39:59.445Z,11.05
2022-11-16T01:43:01.900Z,11.01
2022-11-16T01:46:04.696Z,10.97
2022-11-16T01:49:11.941Z,10.95
2022-11-16T01:52:19.029Z,10.91
2022-11-16T01:55:22.855Z,10.95
2022-11-16T01:58:45.383Z,11.05
2022-11-16T02:01:52.197Z,11.09
2022-11-16T02:04:58.142Z,11.08
2022-11-16T02:08:46.206Z,11.03
2022-11-16T02:12:02.656Z,11.03
2022-11-16T02:15:16.907Z,10.99
2022-11-16T02:18:35.636Z,10.94
2022-11-16T02:21:43.333Z,10.92
2022-11-16T02:24:56.549Z,10.87
2022-11-16T02:28:20.660Z,10.87
2022-11-16T02:31:30.854Z,10.88
2022-11-16T02:34:36.501Z,10.85
2022-11-16T02:37:42.685Z,10.84
2022-11-16T02:40:48.297Z,10.86
2022-11-16T02:44:01.416Z,10.85
2022-11-16T02:47:11.280Z,10.86
2022-11-16T02:50:17.955Z,10.86
2022-11-16T02:53:21.407Z,10.84
2022-11-16T02:56:24.051Z,10.85
2022-11-16T02:59:30.859Z,10.85
2022-11-16T03:02:42.829Z,10.78
2022-11-16T03:05:49.285Z,10.75
2022-11-16T03:08:59.699Z,10.77
2022-11-16T03:12:08.361Z,10.76
2022-11-16T03:15:12.189Z,10.76
2022-11-16T03:18:17.405Z,10.75
2022-11-16T03:21:31.316Z,10.78
2022-11-16T03:24:33.264Z,10.71
2022-11-16T03:27:39.075Z,10.72
2022-11-16T03:30:48.496Z,10.71
2022-11-16T03:33:56.017Z,10.71
2022-11-16T03:37:00.404Z,10.62
2022-11-16T03:40:04.555Z,10.68
2022-11-16T03:43:09.230Z,10.61
2022-11-16T03:46:12.204Z,10.62
2022-11-16T03:49:15.614Z,10.59
2022-11-16T03:52:18.801Z,10.61
2022-11-16T03:55:22.215Z,10.63
2022-11-16T03:58:23.972Z,10.66
2022-11-16T04:01:26.665Z,10.61
2022-11-16T04:04:48.297Z,10.62
2022-11-16T04:08:09.192Z,10.57
2022-11-16T04:11:34.136Z,10.60
2022-11-16T04:14:57.952Z,10.60
2022-11-16T04:18:21.936Z,10.60
2022-11-16T04:21:47.420Z,10.61
2022-11-16T04:24:53.012Z,10.64
2022-11-16T04:28:13.241Z,10.67
2022-11-16T04:31:36.765Z,10.64
2022-11-16T04:35:02.322Z,10.75
2022-11-16T04:38:05.861Z,10.66
2022-11-16T04:41:29.508Z,10.67
2022-11-16T04:44:53.636Z,10.68
2022-11-16T04:47:56.424Z,10.64
2022-11-16T04:51:04.155Z,10.69
2022-11-16T04:54:08.377Z,10.66
2022-11-16T04:57:10.064Z,10.66
2022-11-16T05:00:13.641Z,10.69
2022-11-16T05:03:15.418Z,10.70
2022-11-16T05:06:17.311Z,10.71
2022-11-16T05:09:21.157Z,10.73
2022-11-16T05:12:24.968Z,10.72
2022-11-16T05:15:30.641Z,10.68
2022-11-16T05:18:34.259Z,10.70
2022-11-16T05:21:37.388Z,10.67
2022-11-16T05:24:40.548Z,10.70
2022-11-16T05:27:42.287Z,10.63
2022-11-16T05:30:45.196Z,10.61
2022-11-16T05:33:49.125Z,10.62
2022-11-16T05:36:52.123Z,10.64
2022-11-16T05:39:56.854Z,10.61
2022-11-16T05:43:06.111Z,10.65
2022-11-16T05:46:13.499Z,10.66
2022-11-16T05:49:15.930Z,10.66
2022-11-16T05:52:18.652Z,10.68
2022-11-16T05:55:22.218Z,10.70
2022-11-16T05:58:23.837Z,10.72
2022-11-16T06:01:26.848Z,10.75
2022-11-16T06:04:28.607Z,10.74
2022-11-16T06:07:30.462Z,10.75
2022-11-16T06:10:34.104Z,10.74
2022-11-16T06:13:36.646Z,10.72
2022-11-16T06:16:38.721Z,10.76
2022-11-16T06:19:43.192Z,10.74
2022-11-16T06:22:44.939Z,10.73
2022-11-16T06:25:53.498Z,10.79
2022-11-16T06:28:55.346Z,10.78
2022-11-16T06:31:58.807Z,10.79
2022-11-16T06:35:00.488Z,10.75
2022-11-16T06:38:02.185Z,10.80
2022-11-16T06:41:05.919Z,10.79
2022-11-16T06:44:13.574Z,10.80
2022-11-16T06:47:25.140Z,10.76
2022-11-16T06:50:27.012Z,10.77
2022-11-16T06:53:29.563Z,10.77
2022-11-16T06:56:35.413Z,10.77
2022-11-16T06:59:37.378Z,10.79
2022-11-16T07:02:39.717Z,10.77
2022-11-16T07:05:44.810Z,10.76
2022-11-16T07:08:49.662Z,10.79
2022-11-16T07:11:57.501Z,10.80
2022-11-16T07:14:59.253Z,10.80
2022-11-16T07:18:04.820Z,10.79
2022-11-16T07:21:07.968Z,10.79
2022-11-16T07:24:10.788Z,10.73
2022-11-16T07:27:13.807Z,10.74
2022-11-16T07:30:19.453Z,10.72
2022-11-16T07:33:30.221Z,10.67
2022-11-16T07:37:04.060Z,10.66
2022-11-16T07:40:07.287Z,10.70
2022-11-16T07:43:10.246Z,10.68
2022-11-16T07:46:46.529Z,10.66
2022-11-16T07:49:49.717Z,10.78
2022-11-16T07:52:54.950Z,10.85
2022-11-16T07:55:57.663Z,10.95
2022-11-16T07:59:02.929Z,11.10
2022-11-16T08:02:09.596Z,11.01
2022-11-16T08:05:13.752Z,11.05
2022-11-16T08:08:15.665Z,11.07
2022-11-16T08:11:17.549Z,11.07
2022-11-16T08:14:20.968Z,11.05
2022-11-16T08:17:24.798Z,11.02
2022-11-16T08:20:28.631Z,10.97
2022-11-16T08:23:31.313Z,10.89
2022-11-16T08:26:33.496Z,10.93
2022-11-16T08:29:42.694Z,10.96
2022-11-16T08:32:45.645Z,10.93
2022-11-16T08:35:48.391Z,10.90
2022-11-16T08:38:51.296Z,11.03
2022-11-16T08:41:54.792Z,11.04
2022-11-16T08:44:57.940Z,11.13
2022-11-16T08:48:03.773Z,11.16
2022-11-16T08:51:19.333Z,11.21
2022-11-16T08:54:29.153Z,11.20
2022-11-16T08:57:31.135Z,11.11
2022-11-16T09:00:37.186Z,11.10
2022-11-16T09:03:38.972Z,11.17
2022-11-16T09:06:40.712Z,11.26
2022-11-16T09:09:42.337Z,11.33
2022-11-16T09:12:43.986Z,11.39
2022-11-16T09:15:46.974Z,11.48
2022-11-16T09:18:50.357Z,11.57
2022-11-16T09:21:52.022Z,11.63
2022-11-16T09:24:53.707Z,11.80
2022-11-16T09:27:55.760Z,11.96
2022-11-16T09:31:02.079Z,11.98
2022-11-16T09:34:04.346Z,12.05
2022-11-16T09:37:06.099Z,12.09
2022-11-16T09:40:08.934Z,12.08
2022-11-16T09:43:20.914Z,12.13
2022-11-16T09:46:29.202Z,12.19
2022-11-16T09:49:35.764Z,12.11
2022-11-16T09:52:41.510Z,12.09
2022-11-16T09:55:48.264Z,11.98
2022-11-16T09:58:56.066Z,12.00
2022-11-16T10:02:02.697Z,11.92
2022-11-16T10:05:13.007Z,11.94
2022-11-16T10:08:21.418Z,11.97
2022-11-16T10:11:41.692Z,11.86
2022-11-16T10:15:09.600Z,12.13
2022-11-16T10:18:28.720Z,11.96
2022-11-16T10:21:40.143Z,12.07
2022-11-16T10:24:55.677Z,12.02
2022-11-16T10:28:23.991Z,11.82
2022-11-16T10:31:36.040Z,11.92
2022-11-16T10:34:45.669Z,11.82
2022-11-16T10:37:49.955Z,12.17
2022-11-16T10:40:55.191Z,12.26
2022-11-16T10:43:58.987Z,12.32
2022-11-16T10:47:04.727Z,12.39
2022-11-16T10:50:25.143Z,12.59
2022-11-16T10:53:29.106Z,12.61
2022-11-16T10:56:34.244Z,12.62
2022-11-16T10:59:40.663Z,12.75
2022-11-16T11:02:48.829Z,13.00
2022-11-16T11:05:53.543Z,12.88
2022-11-16T11:08:55.196Z,12.89
2022-11-16T11:12:21.247Z,12.76
2022-11-16T11:15:26.847Z,12.71
2022-11-16T11:18:30.054Z,12.63
2022-11-16T11:21:33.067Z,12.63
2022-11-16T11:24:44.395Z,12.59
2022-11-16T11:27:46.985Z,12.60
2022-11-16T11:30:59.578Z,12.75
2022-11-16T11:34:13.262Z,12.48
2022-11-16T11:37:19.462Z,12.37
2022-11-16T11:40:24.271Z,12.50
2022-11-16T11:43:28.373Z,12.46
2022-11-16T11:47:11.051Z,12.30
2022-11-16T11:50:05.705Z,12.09
2022-11-16T11:53:21.101Z,12.00
2022-11-16T11:56:23.023Z,12.01
2022-11-16T11:59:26.677Z,11.95
2022-11-16T12:02:47.556Z,11.96
2022-11-16T12:06:01.905Z,11.96
2022-11-16T12:09:17.880Z,12.16
2022-11-16T12:12:32.509Z,12.82
2022-11-16T12:15:50.350Z,13.02
2022-11-16T12:19:10.227Z,13.14
2022-11-16T12:22:27.293Z,13.65
2022-11-16T12:25:36.502Z,14.35
2022-11-16T12:28:51.474Z,14.03
2022-11-16T12:32:17.850Z,13.75
2022-11-16T12:35:31.447Z,13.59
2022-11-16T12:38:45.417Z,13.40
2022-11-16T12:41:59.969Z,13.39
2022-11-16T12:45:15.592Z,13.30
2022-11-16T12:48:49.260Z,13.21
2022-11-16T12:52:04.809Z,13.28
2022-11-16T12:55:31.076Z,13.36
2022-11-16T12:58:48.575Z,13.53
2022-11-16T13:02:00.644Z,13.36
2022-11-16T13:05:12.178Z,13.29
2022-11-16T13:08:19.370Z,13.17
2022-11-16T13:11:25.320Z,12.98
2022-11-16T13:14:33.223Z,12.82
2022-11-16T13:17:38.719Z,12.86
2022-11-16T13:20:48.453Z,12.95
2022-11-16T13:24:02.393Z,12.94
2022-11-16T13:27:25.249Z,13.16
2022-11-16T13:30:45.158Z,13.02
2022-11-16T13:33:51.217Z,13.08
2022-11-16T13:36:53.222Z,13.76
2022-11-16T13:40:27.193Z,13.74
2022-11-16T13:43:29.004Z,13.89
2022-11-16T13:46:55.356Z,13.62
2022-11-16T13:50:01.412Z,13.88
2022-11-16T13:54:10.820Z,13.70
2022-11-16T13:56:45.751Z,13.36
2022-11-16T13:59:49.288Z,13.09
2022-11-16T14:03:26.817Z,13.16
2022-11-16T14:06:56.286Z,13.32
2022-11-16T14:09:58.228Z,13.33
2022-11-16T14:13:00.575Z,13.41
2022-11-16T14:16:35.534Z,13.40
2022-11-16T14:19:55.081Z,13.34
2022-11-16T14:23:36.458Z,13.30
2022-11-16T14:26:47.195Z,13.18
2022-11-16T14:30:01.697Z,13.18
2022-11-16T14:33:03.582Z,13.16
2022-11-16T14:36:09.434Z,13.05
2022-11-16T14:39:27.943Z,12.89
2022-11-16T14:42:42.964Z,12.94
2022-11-16T14:45:57.897Z,12.80
2022-11-16T14:49:02.116Z,12.87
2022-11-16T14:52:08.168Z,13.04
2022-11-16T14:55:18.793Z,13.07
2022-11-16T14:58:22.568Z,13.15
2022-11-16T15:01:27.680Z,13.12
2022-11-16T15:04:29.992Z,13.17
2022-11-16T15:07:33.418Z,13.15
2022-11-16T15:10:35.734Z,13.10
2022-11-16T15:13:37.760Z,13.01
2022-11-16T15:16:49.126Z,12.89
2022-11-16T15:19:55.323Z,12.71
2022-11-16T15:23:00.103Z,12.65
2022-11-16T15:26:03.422Z,12.55
2022-11-16T15:29:05.060Z,12.32
2022-11-16T15:32:12.669Z,11.98
2022-11-16T15:35:19.180Z,11.69
2022-11-16T15:38:25.657Z,11.53
2022-11-16T15:41:29.265Z,11.47
2022-11-16T15:44:32.195Z,11.39
2022-11-16T15:47:36.891Z,11.41
2022-11-16T15:50:39.042Z,11.45
2022-11-16T15:53:44.155Z,11.43
2022-11-16T15:56:45.888Z,11.51
2022-11-16T15:59:49.402Z,11.53
2022-11-16T16:02:51.811Z,11.71
2022-11-16T16:05:54.566Z,11.59
2022-11-16T16:09:05.653Z,11.62
2022-11-16T16:12:18.097Z,11.67
2022-11-16T16:15:22.861Z,11.66
2022-11-16T16:18:40.594Z,11.76
2022-11-16T16:21:44.474Z,11.73
2022-11-16T16:24:47.458Z,11.73
2022-11-16T16:27:49.360Z,11.79
2022-11-16T16:30:51.329Z,11.79
2022-11-16T16:38:39.982Z,11.59
2022-11-16T16:42:02.241Z,11.55
2022-11-16T16:45:30.598Z,11.47
2022-11-16T16:48:50.934Z,11.49
2022-11-16T16:52:12.553Z,11.33
2022-11-16T16:55:37.187Z,11.03
2022-11-16T16:58:59.452Z,10.87
2022-11-16T17:02:19.951Z,10.70
2022-11-16T17:05:40.190Z,10.74
2022-11-16T17:09:00.633Z,10.64
2022-11-16T17:12:21.063Z,11.35
2022-11-16T17:15:42.590Z,11.35
2022-11-16T17:19:03.639Z,11.39
2022-11-16T17:22:24.027Z,11.44
2022-11-16T17:25:44.418Z,11.60
2022-11-16T17:29:04.783Z,11.67
2022-11-16T17:32:26.701Z,11.89
2022-11-16T17:35:54.972Z,11.88
2022-11-16T17:39:16.220Z,11.69
2022-11-16T17:42:36.804Z,11.93
2022-11-16T17:46:02.492Z,12.30
2022-11-16T17:49:24.079Z,11.97
2022-11-16T17:52:44.624Z,11.85
2022-11-16T17:56:06.521Z,11.81
2022-11-16T17:59:29.541Z,12.01
2022-11-16T18:02:50.044Z,12.08
2022-11-16T18:06:13.701Z,12.10
2022-11-16T18:09:33.860Z,12.03
2022-11-16T18:12:54.300Z,11.97
2022-11-16T18:16:16.111Z,12.04
2022-11-16T18:19:36.433Z,12.13
2022-11-16T18:22:58.297Z,12.12
2022-11-16T18:26:22.746Z,12.22
2022-11-16T18:29:42.869Z,12.23
2022-11-16T18:33:03.321Z,12.25
2022-11-16T18:36:23.588Z,12.14
2022-11-16T18:39:45.385Z,12.14
2022-11-16T18:43:05.638Z,12.00
2022-11-16T18:46:27.379Z,11.92
2022-11-16T18:49:29.165Z,12.01
2022-11-16T19:01:54.284Z,12.08
2022-11-16T19:04:56.057Z,11.77
2022-11-16T19:07:58.353Z,11.70
2022-11-16T19:11:04.198Z,11.70
2022-11-16T19:14:07.706Z,11.62
2022-11-16T19:17:10.886Z,11.50
2022-11-16T19:20:13.273Z,11.52
2022-11-16T19:23:14.913Z,11.61
2022-11-16T19:26:19.236Z,11.69
2022-11-16T19:29:20.944Z,11.56
2022-11-16T19:32:23.949Z,11.58
2022-11-16T19:35:25.891Z,11.68
2022-11-16T19:38:29.337Z,11.74
2022-11-16T19:41:31.303Z,11.85
2022-11-16T19:44:32.944Z,11.80
2022-11-16T19:47:35.944Z,11.72
2022-11-16T19:50:37.564Z,11.82
2022-11-16T19:53:40.047Z,11.71
2022-11-16T19:56:42.784Z,11.64
2022-11-16T19:59:44.405Z,11.66
2022-11-16T20:02:47.341Z,11.67
2022-11-16T20:05:48.987Z,11.53
2022-11-16T20:08:52.670Z,11.52
2022-11-16T20:11:55.062Z,11.45
2022-11-16T20:14:56.770Z,11.44
2022-11-16T20:17:59.849Z,11.37
2022-11-16T20:21:02.455Z,11.61
2022-11-16T20:24:07.119Z,11.55
2022-11-16T20:27:09.116Z,11.65
2022-11-16T20:30:11.741Z,11.38
2022-11-16T20:33:15.096Z,11.52
2022-11-16T20:36:16.877Z,11.42
2022-11-16T20:39:20.171Z,11.28
2022-11-16T20:42:21.787Z,11.52
2022-11-16T20:45:23.419Z,11.64
2022-11-16T20:48:26.765Z,11.42
2022-11-16T20:51:29.342Z,11.42
2022-11-16T20:54:31.003Z,11.57
2022-11-16T20:57:32.636Z,11.71
2022-11-16T21:00:34.234Z,11.54
2022-11-16T21:03:37.601Z,11.64
2022-11-16T21:06:40.006Z,11.72
2022-11-16T21:10:00.369Z,11.78
2022-11-16T21:13:31.714Z,11.71
2022-11-16T21:16:34.660Z,11.80
2022-11-16T21:19:37.666Z,11.64
2022-11-16T21:22:39.308Z,11.74
2022-11-16T21:25:40.945Z,11.91
2022-11-16T21:28:45.454Z,11.91
2022-11-16T21:31:47.081Z,12.01
2022-11-16T21:34:50.103Z,11.96
2022-11-16T21:37:51.716Z,11.93
2022-11-16T21:40:53.610Z,11.92
2022-11-16T21:43:55.523Z,11.82
2022-11-16T21:46:57.078Z,12.08
2022-11-16T21:50:30.141Z,12.04
2022-11-16T21:53:21.678Z,11.98
2022-11-16T21:56:25.270Z,11.99
2022-11-16T21:59:26.872Z,11.82
2022-11-16T22:02:28.461Z,11.80
2022-11-16T22:05:50.104Z,11.71
2022-11-16T22:08:52.552Z,11.81
2022-11-16T22:11:54.196Z,11.88
2022-11-16T22:14:56.109Z,11.85
2022-11-16T22:17:57.760Z,11.86
2022-11-16T22:21:00.930Z,11.92
2022-11-16T22:24:02.619Z,11.77
2022-11-16T22:27:04.433Z,11.74
2022-11-16T22:30:07.593Z,11.77
2022-11-16T22:33:09.627Z,11.71
2022-11-16T22:36:13.542Z,11.78
2022-11-16T22:39:15.219Z,11.79
2022-11-16T22:42:16.881Z,11.69
2022-11-16T22:45:18.580Z,11.70
2022-11-16T22:48:20.166Z,11.61
2022-11-16T22:51:25.014Z,11.62
2022-11-16T22:54:28.757Z,11.50
2022-11-16T22:57:30.601Z,11.53
2022-11-16T23:00:34.210Z,11.69
2022-11-16T23:03:39.602Z,11.78
2022-11-16T23:06:42.873Z,11.77
2022-11-16T23:09:44.540Z,11.81
2022-11-16T23:13:04.951Z,11.80
2022-11-16T23:16:07.313Z,11.85
2022-11-16T23:19:29.569Z,11.70
2022-11-16T23:22:51.139Z,11.90
2022-11-16T23:26:11.622Z,11.80
2022-11-16T23:29:13.267Z,11.80
2022-11-16T23:32:15.048Z,11.73
2022-11-16T23:35:17.244Z,11.67
2022-11-16T23:38:20.211Z,11.60
2022-11-16T23:41:40.294Z,11.60
2022-11-16T23:44:42.084Z,11.72
2022-11-16T23:47:43.650Z,11.69
2022-11-16T23:50:45.884Z,11.59
2022-11-16T23:53:49.412Z,11.73
2022-11-16T23:56:51.100Z,11.86
2022-11-16T23:59:52.767Z,11.79
